Time;durP1;ratioP1;P1;durP2;ratioP2;P2;SDS_P1;SDS_P2;PMS_P1;PMS_P2;Temp;Humidity;BMP_temperature;BMP_pressure;BME280_temperature;BME280_humidity;BME280_pressure;Samples;Min_cycle;Max_cycle;Signal;HPM_P1;HPM_P2
2023/09/20 00:02:17;;;;;;;;;;;;;;;;;;7374878;19;1461;-68
2023/09/20 00:04:47;;;;;;;;;;;;;;;;;;7371777;19;1634;-69
2023/09/20 00:07:16;;;;;;;;;;;;;;;;;;7375161;19;1748;-71
2023/09/20 00:09:44;;;;;;;;;;;;;;;;;;7372344;19;1688;-69
2023/09/20 00:12:12;;;;;;;;;;;;;;;;;;7374304;19;1599;-69
2023/09/20 00:14:40;;;;;;;;;;;;;;;;;;7373792;19;2069;-67
2023/09/20 00:17:08;;;;;;;;;;;;;;;;;;7372988;19;1525;-66
2023/09/20 00:19:39;;;;;;;;;;;;;;;;;;7372763;19;1843;-68
2023/09/20 00:22:10;;;;;;;;;;;;;;;;;;7370408;19;762;-69
2023/09/20 00:24:39;;;;;;;;;;;;;;;;;;7373403;19;2085;-68
2023/09/20 00:27:08;;;;;;;;;;;;;;;;;;7374482;19;1474;-67
2023/09/20 00:29:36;;;;;;;;;;;;;;;;;;7367899;19;1740;-70
2023/09/20 00:32:07;;;;;;;;;;;;;;;;;;7368478;19;1886;-70
2023/09/20 00:34:35;;;;;;;;;;;;;;;;;;7371906;19;2085;-69
2023/09/20 00:37:03;;;;;;;;;;;;;;;;;;7373201;19;1730;-69
2023/09/20 00:39:31;;;;;;;;;;;;;;;;;;7368026;19;1856;-69
2023/09/20 00:41:59;;;;;;;;;;;;;;;;;;7368667;19;773;-68
2023/09/20 00:44:27;;;;;;;;;;;;;;;;;;7373907;19;1451;-68
2023/09/20 00:46:55;;;;;;;;;;;;;;;;;;7370424;19;1789;-66
2023/09/20 00:49:24;;;;;;;;;;;;;;;;;;7370818;19;1745;-67
2023/09/20 00:51:52;;;;;;;;;;;;;;;;;;7370026;19;1671;-66
2023/09/20 00:54:21;;;;;;;;;;;;;;;;;;7372622;19;1311;-68
2023/09/20 00:56:49;;;;;;;;;;;;;;;;;;7367214;19;825;-68
2023/09/20 00:59:17;;;;;;;;;;;;;;;;;;7368839;19;1978;-69
2023/09/20 01:01:45;;;;;;;;;;;;;;;;;;7372759;19;1664;-67
2023/09/20 01:04:14;;;;;;;;;;;;;;;;;;7369628;19;1914;-68
2023/09/20 01:06:44;;;;;;;;;;;;;;;;;;7371305;19;1588;-68
2023/09/20 01:09:13;;;;;;;;;;;;;;;;;;7370032;19;1489;-66
2023/09/20 01:11:41;;;;;;;;;;;;;;;;;;7371378;19;1668;-65
2023/09/20 01:14:10;;;;;;;;;;;;;;;;;;7369742;19;1934;-66
2023/09/20 01:16:38;;;;;;;;;;;;;;;;;;7368893;19;2026;-68
2023/09/20 01:19:07;;;;;;;;;;;;;;;;;;7370512;19;1833;-68
2023/09/20 01:21:35;;;;;;;;;;;;;;;;;;7366946;19;861;-68
2023/09/20 01:24:04;;;;;;;;;;;;;;;;;;7370806;19;1928;-69
2023/09/20 01:26:33;;;;;;;;;;;;;;;;;;7367418;19;1901;-67
2023/09/20 01:29:01;;;;;;;;;;;;;;;;;;7370259;19;1706;-69
2023/09/20 01:31:30;;;;;;;;;;;;;;;;;;7373015;19;1733;-67
2023/09/20 01:33:58;;;;;;;;;;;;;;;;;;7368590;19;915;-67
2023/09/20 01:36:27;;;;;;;;;;;;;;;;;;7367190;19;807;-67
2023/09/20 01:38:55;;;;;;;;;;;;;;;;;;7367569;19;1316;-69
2023/09/20 01:41:25;;;;;;;;;;;;;;;;;;7367346;19;1838;-67
2023/09/20 01:43:53;;;;;;;;;;;;;;;;;;7371839;19;1662;-69
2023/09/20 01:46:25;;;;;;;;;;;;;;;;;;7369452;19;2077;-67
2023/09/20 01:48:53;;;;;;;;;;;;;;;;;;7369024;19;1635;-69
2023/09/20 01:51:23;;;;;;;;;;;;;;;;;;7368332;19;865;-67
2023/09/20 01:53:52;;;;;;;;;;;;;;;;;;7370008;19;1927;-67
2023/09/20 01:56:21;;;;;;;;;;;;;;;;;;7370761;19;1570;-70
2023/09/20 01:58:50;;;;;;;;;;;;;;;;;;7365414;19;1920;-67
2023/09/20 02:01:18;;;;;;;;;;;;;;;;;;7367374;19;1827;-67
2023/09/20 02:03:48;;;;;;;;;;;;;;;;;;7369290;19;1441;-70
2023/09/20 02:06:16;;;;;;;;;;;;;;;;;;7371279;19;1121;-71
2023/09/20 02:08:47;;;;;;;;;;;;;;;;;;7367096;19;1897;-68
2023/09/20 02:11:15;;;;;;;;;;;;;;;;;;7369390;19;1863;-68
2023/09/20 02:13:43;;;;;;;;;;;;;;;;;;7369739;19;1778;-65
2023/09/20 02:16:11;;;;;;;;;;;;;;;;;;7369013;19;1698;-69
2023/09/20 02:18:39;;;;;;;;;;;;;;;;;;7364411;19;1230;-67
2023/09/20 02:21:10;;;;;;;;;;;;;;;;;;7364662;19;1858;-69
2023/09/20 02:23:38;;;;;;;;;;;;;;;;;;7367782;19;1813;-68
2023/09/20 02:26:06;;;;;;;;;;;;;;;;;;7368750;19;1512;-67
2023/09/20 02:28:34;;;;;;;;;;;;;;;;;;7364229;19;1640;-67
2023/09/20 02:31:02;;;;;;;;;;;;;;;;;;7369203;19;1747;-68
2023/09/20 02:33:30;;;;;;;;;;;;;;;;;;7372048;19;1445;-67
2023/09/20 02:35:59;;;;;;;;;;;;;;;;;;7367972;19;2101;-68
2023/09/20 02:38:28;;;;;;;;;;;;;;;;;;7368416;19;1715;-68
2023/09/20 02:40:56;;;;;;;;;;;;;;;;;;7369109;19;1853;-67
2023/09/20 02:43:26;;;;;;;;;;;;;;;;;;7365986;19;851;-69
2023/09/20 02:45:54;;;;;;;;;;;;;;;;;;7365602;19;768;-65
2023/09/20 02:48:24;;;;;;;;;;;;;;;;;;7365848;19;1738;-66
2023/09/20 02:50:52;;;;;;;;;;;;;;;;;;7369369;19;1711;-67
2023/09/20 02:53:21;;;;;;;;;;;;;;;;;;7370177;19;1503;-69
2023/09/20 02:55:50;;;;;;;;;;;;;;;;;;7365593;19;888;-67
2023/09/20 02:58:18;;;;;;;;;;;;;;;;;;7366421;19;1336;-68
2023/09/20 03:00:50;;;;;;;;;;;;;;;;;;7365596;19;2007;-68
2023/09/20 03:03:23;;;;;;;;;;;;;;;;;;7369442;19;1846;-69
2023/09/20 03:05:51;;;;;;;;;;;;;;;;;;7369903;19;1691;-67
2023/09/20 03:08:19;;;;;;;;;;;;;;;;;;7365742;19;1279;-68
2023/09/20 03:10:47;;;;;;;;;;;;;;;;;;7368352;19;1828;-68
2023/09/20 03:13:16;;;;;;;;;;;;;;;;;;7369294;19;1504;-68
2023/09/20 03:15:45;;;;;;;;;;;;;;;;;;7364610;19;1795;-68
2023/09/20 03:18:15;;;;;;;;;;;;;;;;;;7366261;19;1796;-68
2023/09/20 03:20:48;;;;;;;;;;;;;;;;;;7366629;19;1858;-68
2023/09/20 03:23:16;;;;;;;;;;;;;;;;;;7368739;19;1759;-69
2023/09/20 03:25:45;;;;;;;;;;;;;;;;;;7363828;19;803;-66
2023/09/20 03:28:22;;;;;;;;;;;;;;;;;;7365052;19;2003;-67
2023/09/20 03:30:51;;;;;;;;;;;;;;;;;;7366082;19;1815;-66
2023/09/20 03:33:20;;;;;;;;;;;;;;;;;;7368408;19;1491;-66
2023/09/20 03:35:48;;;;;;;;;;;;;;;;;;7365031;19;1826;-68
2023/09/20 03:38:19;;;;;;;;;;;;;;;;;;7367581;19;1703;-67
2023/09/20 03:40:47;;;;;;;;;;;;;;;;;;7367424;19;1845;-68
2023/09/20 03:43:16;;;;;;;;;;;;;;;;;;7366751;19;1936;-67
2023/09/20 03:45:49;;;;;;;;;;;;;;;;;;7365488;19;2115;-67
2023/09/20 03:48:18;;;;;;;;;;;;;;;;;;7366535;19;1976;-66
2023/09/20 03:50:49;;;;;;;;;;;;;;;;;;7366553;19;1788;-66
2023/09/20 03:53:17;;;;;;;;;;;;;;;;;;7367937;19;1678;-67
2023/09/20 03:55:48;;;;;;;;;;;;;;;;;;7365304;19;1872;-67
2023/09/20 03:58:17;;;;;;;;;;;;;;;;;;7365803;19;1770;-67
2023/09/20 04:00:46;;;;;;;;;;;;;;;;;;7364583;19;2039;-68
2023/09/20 04:03:16;;;;;;;;;;;;;;;;;;7366857;19;1666;-66
2023/09/20 04:05:46;;;;;;;;;;;;;;;;;;7362591;19;846;-67
2023/09/20 04:08:16;;;;;;;;;;;;;;;;;;7363482;19;2280;-67
2023/09/20 04:10:44;;;;;;;;;;;;;;;;;;7366708;19;1465;-69
2023/09/20 04:13:13;;;;;;;;;;;;;;;;;;7364315;19;2028;-67
2023/09/20 04:15:42;;;;;;;;;;;;;;;;;;7364924;19;1761;-67
2023/09/20 04:18:10;;;;;;;;;;;;;;;;;;7363809;19;1663;-68
2023/09/20 04:20:39;;;;;;;;;;;;;;;;;;7364954;19;1854;-67
2023/09/20 04:23:09;;;;;;;;;;;;;;;;;;7365217;19;2100;-66
2023/09/20 04:25:37;;;;;;;;;;;;;;;;;;7362463;19;1975;-67
2023/09/20 04:28:05;;;;;;;;;;;;;;;;;;7371549;19;1887;-69
2023/09/20 04:30:34;;;;;;;;;;;;;;;;;;7369254;19;864;-67
2023/09/20 04:33:03;;;;;;;;;;;;;;;;;;7371598;19;1849;-68
2023/09/20 04:35:38;;;;;;;;;;;;;;;;;;7371678;19;1589;-67
2023/09/20 04:38:09;;;;;;;;;;;;;;;;;;7367784;19;1294;-68
2023/09/20 04:40:37;;;;;;;;;;;;;;;;;;7369758;19;2143;-69
2023/09/20 04:43:05;;;;;;;;;;;;;;;;;;7371100;19;1713;-68
2023/09/20 04:45:34;;;;;;;;;;;;;;;;;;7370334;19;1765;-67
2023/09/20 04:48:03;;;;;;;;;;;;;;;;;;7370250;19;1713;-70
2023/09/20 04:50:31;;;;;;;;;;;;;;;;;;7371087;19;1651;-67
2023/09/20 04:53:00;;;;;;;;;;;;;;;;;;7371183;19;1944;-67
2023/09/20 04:55:29;;;;;;;;;;;;;;;;;;7371957;19;1548;-70
2023/09/20 04:57:57;;;;;;;;;;;;;;;;;;7367600;19;1277;-67
2023/09/20 05:00:33;;;;;;;;;;;;;;;;;;7367907;19;1825;-69
2023/09/20 05:03:02;;;;;;;;;;;;;;;;;;7368104;19;794;-70
2023/09/20 05:05:30;;;;;;;;;;;;;;;;;;7367677;19;824;-67
2023/09/20 05:07:59;;;;;;;;;;;;;;;;;;7369577;19;1757;-69
2023/09/20 05:10:27;;;;;;;;;;;;;;;;;;7371966;19;1554;-68
2023/09/20 05:12:55;;;;;;;;;;;;;;;;;;7368219;19;866;-68
2023/09/20 05:15:24;;;;;;;;;;;;;;;;;;7368989;19;2126;-67
2023/09/20 05:17:53;;;;;;;;;;;;;;;;;;7370022;19;1494;-68
2023/09/20 05:20:21;;;;;;;;;;;;;;;;;;7367145;19;1856;-71
2023/09/20 05:22:49;;;;;;;;;;;;;;;;;;7369668;19;1845;-68
2023/09/20 05:25:19;;;;;;;;;;;;;;;;;;7372431;19;1474;-68
2023/09/20 05:27:48;;;;;;;;;;;;;;;;;;7366991;19;1346;-68
2023/09/20 05:30:16;;;;;;;;;;;;;;;;;;7368911;19;1809;-70
2023/09/20 05:32:45;;;;;;;;;;;;;;;;;;7370146;19;1751;-76
2023/09/20 05:35:13;;;;;;;;;;;;;;;;;;7373003;19;1399;-68
2023/09/20 05:37:41;;;;;;;;;;;;;;;;;;7367452;19;1294;-68
2023/09/20 05:40:14;;;;;;;;;;;;;;;;;;7368778;19;1677;-67
2023/09/20 05:42:43;;;;;;;;;;;;;;;;;;7367181;19;1842;-68
2023/09/20 05:45:11;;;;;;;;;;;;;;;;;;7371485;19;1725;-69
2023/09/20 05:47:39;;;;;;;;;;;;;;;;;;7368886;19;1769;-67
2023/09/20 05:50:10;;;;;;;;;;;;;;;;;;7367926;19;1445;-68
2023/09/20 05:52:40;;;;;;;;;;;;;;;;;;7368025;19;694;-66
2023/09/20 05:55:11;;;;;;;;;;;;;;;;;;7369731;19;1956;-67
2023/09/20 05:57:39;;;;;;;;;;;;;;;;;;7367034;19;1385;-67
2023/09/20 06:00:18;;;;;;;;;;;;;;;;;;7369719;19;1696;-66
2023/09/20 06:02:49;;;;;;;;;;;;;;;;;;7365348;19;1854;-67
2023/09/20 06:05:18;;;;;;;;;;;;;;;;;;7371237;19;1460;-67
2023/09/20 06:07:47;;;;;;;;;;;;;;;;;;7368333;19;1678;-67
2023/09/20 06:10:16;;;;;;;;;;;;;;;;;;7372010;19;1507;-67
2023/09/20 06:12:45;;;;;;;;;;;;;;;;;;7367784;19;821;-66
2023/09/20 06:15:15;;;;;;;;;;;;;;;;;;7368063;19;1976;-69
2023/09/20 06:17:43;;;;;;;;;;;;;;;;;;7369682;19;1690;-66
2023/09/20 06:20:19;;;;;;;;;;;;;;;;;;7367317;19;849;-67
2023/09/20 06:22:47;;;;;;;;;;;;;;;;;;7368171;19;1912;-66
2023/09/20 06:25:15;;;;;;;;;;;;;;;;;;7369976;19;1520;-66
2023/09/20 06:27:43;;;;;;;;;;;;;;;;;;7370754;19;1311;-67
2023/09/20 06:30:15;;;;;;;;;;;;;;;;;;7367539;19;800;-67
2023/09/20 06:32:44;;;;;;;;;;;;;;;;;;7366980;19;1562;-68
2023/09/20 06:35:14;;;;;;;;;;;;;;;;;;7369779;19;1661;-66
2023/09/20 06:37:40;;;;;;;;;;;;;;;;;;7368120;19;1587;-67
2023/09/20 06:40:16;;;;;;;;;;;;;;;;;;7369668;19;1586;-66
2023/09/20 06:42:45;;;;;;;;;;;;;;;;;;7366207;19;1853;-66
2023/09/20 06:45:13;;;;;;;;;;;;;;;;;;7369605;19;1499;-66
2023/09/20 06:47:41;;;;;;;;;;;;;;;;;;7366151;19;1330;-68
2023/09/20 06:50:09;;;;;;;;;;;;;;;;;;7366876;19;2123;-66
2023/09/20 06:52:37;;;;;;;;;;;;;;;;;;7368473;19;1789;-69
2023/09/20 06:55:05;;;;;;;;;;;;;;;;;;7369413;19;1486;-66
2023/09/20 06:57:34;;;;;;;;;;;;;;;;;;7364368;19;1355;-70
2023/09/20 07:00:16;;;;;;;;;;;;;;;;;;7366744;19;1666;-69
2023/09/20 07:02:46;;;;;;;;;;;;;;;;;;7367673;19;1840;-68
2023/09/20 07:05:14;;;;;;;;;;;;;;;;;;7365742;19;816;-68
2023/09/20 07:07:42;;;;;;;;;;;;;;;;;;7365983;19;1286;-68
2023/09/20 07:10:11;;;;;;;;;;;;;;;;;;7365609;19;851;-66
2023/09/20 07:12:40;;;;;;;;;;;;;;;;;;7366247;19;783;-67
2023/09/20 07:15:09;;;;;;;;;;;;;;;;;;7365734;19;875;-70
2023/09/20 07:17:38;;;;;;;;;;;;;;;;;;7365759;19;1359;-68
2023/09/20 07:20:14;;;;;;;;;;;;;;;;;;7366217;19;888;-67
2023/09/20 07:22:43;;;;;;;;;;;;;;;;;;7363339;19;1865;-69
2023/09/20 07:25:17;;;;;;;;;;;;;;;;;;7366074;19;1544;-68
2023/09/20 07:27:45;;;;;;;;;;;;;;;;;;7357619;19;2022;-66
2023/09/20 07:30:14;;;;;;;;;;;;;;;;;;7363807;19;1823;-67
2023/09/20 07:32:43;;;;;;;;;;;;;;;;;;7366305;19;1915;-65
2023/09/20 07:35:26;;;;;;;;;;;;;;;;;;7367213;19;1963;-67
2023/09/20 07:37:56;;;;;;;;;;;;;;;;;;7367826;19;1494;-69
2023/09/20 07:40:24;;;;;;;;;;;;;;;;;;7365233;19;1884;-66
2023/09/20 07:42:52;;;;;;;;;;;;;;;;;;7365541;19;1999;-70
2023/09/20 07:45:22;;;;;;;;;;;;;;;;;;7369075;19;1023;-67
2023/09/20 07:47:50;;;;;;;;;;;;;;;;;;7365094;19;1285;-69
2023/09/20 07:50:19;;;;;;;;;;;;;;;;;;7365824;19;782;-66
2023/09/20 07:52:50;;;;;;;;;;;;;;;;;;7366934;19;1828;-66
2023/09/20 07:55:19;;;;;;;;;;;;;;;;;;7367045;19;2025;-68
2023/09/20 07:57:47;;;;;;;;;;;;;;;;;;7367666;19;1500;-66
2023/09/20 08:00:15;;;;;;;;;;;;;;;;;;7364511;19;786;-66
2023/09/20 08:02:47;;;;;;;;;;;;;;;;;;7369790;19;1888;-64
2023/09/20 08:05:15;;;;;;;;;;;;;;;;;;7374162;19;2003;-67
2023/09/20 08:07:44;;;;;;;;;;;;;;;;;;7371581;19;1702;-66
2023/09/20 08:10:12;;;;;;;;;;;;;;;;;;7376812;19;1506;-68
2023/09/20 08:12:41;;;;;;;;;;;;;;;;;;7373744;19;1921;-68
2023/09/20 08:15:12;;;;;;;;;;;;;;;;;;7375536;19;1498;-66
2023/09/20 08:20:22;;;;;;;;;;;;;;;;;;7372645;19;756;-68
2023/09/20 09:00:27;;;;;;;;;;;;;;;;;;7369795;19;782;-68
2023/09/20 09:02:56;;;;;;;;;;;;;;;;;;7368705;19;1821;-68
2023/09/20 09:05:24;;;;;;;;;;;;;;;;;;7369065;19;864;-69
2023/09/20 09:07:53;;;;;;;;;;;;;;;;;;7369464;19;1289;-68
2023/09/20 09:10:21;;;;;;;;;;;;;;;;;;7369333;19;830;-68
2023/09/20 09:12:49;;;;;;;;;;;;;;;;;;7368720;19;810;-67
2023/09/20 09:15:18;;;;;;;;;;;;;;;;;;7368873;19;883;-65
2023/09/20 09:17:46;;;;;;;;;;;;;;;;;;7369433;19;1288;-65
2023/09/20 09:20:15;;;;;;;;;;;;;;;;;;7369080;19;866;-65
2023/09/20 09:22:43;;;;;;;;;;;;;;;;;;7367913;19;1853;-66
2023/09/20 09:25:14;;;;;;;;;;;;;;;;;;7368115;19;886;-67
2023/09/20 09:27:43;;;;;;;;;;;;;;;;;;7369350;19;1823;-65
2023/09/20 09:30:12;;;;;;;;;;;;;;;;;;7373097;19;1488;-64
2023/09/20 09:32:40;;;;;;;;;;;;;;;;;;7370116;19;2031;-67
2023/09/20 09:35:08;;;;;;;;;;;;;;;;;;7371981;19;1493;-64
2023/09/20 09:37:36;;;;;;;;;;;;;;;;;;7369789;19;1843;-64
2023/09/20 09:40:04;;;;;;;;;;;;;;;;;;7369289;19;1821;-65
2023/09/20 09:42:32;;;;;;;;;;;;;;;;;;7369903;19;1969;-64
2023/09/20 09:45:01;;;;;;;;;;;;;;;;;;7367945;19;869;-65
2023/09/20 09:47:29;;;;;;;;;;;;;;;;;;7370103;19;1563;-66
2023/09/20 09:49:59;;;;;;;;;;;;;;;;;;7368721;19;1424;-65
2023/09/20 09:52:27;;;;;;;;;;;;;;;;;;7368858;19;709;-64
2023/09/20 09:54:55;;;;;;;;;;;;;;;;;;7368253;19;1865;-64
2023/09/20 09:57:23;;;;;;;;;;;;;;;;;;7371787;19;1749;-62
2023/09/20 09:59:52;;;;;;;;;;;;;;;;;;7367760;19;1854;-65
2023/09/20 10:02:20;;;;;;;;;;;;;;;;;;7369270;19;1863;-63
2023/09/20 10:04:48;;;;;;;;;;;;;;;;;;7367781;19;1720;-62
2023/09/20 10:07:17;;;;;;;;;;;;;;;;;;7369585;19;2108;-64
2023/09/20 10:09:45;;;;;;;;;;;;;;;;;;7367228;19;1752;-63
2023/09/20 10:12:15;;;;;;;;;;;;;;;;;;7370378;19;1792;-62
2023/09/20 10:14:43;;;;;;;;;;;;;;;;;;7370892;19;1503;-62
2023/09/20 10:17:14;;;;;;;;;;;;;;;;;;7368214;19;798;-64
2023/09/20 10:19:42;;;;;;;;;;;;;;;;;;7365417;19;1453;-64
2023/09/20 10:22:11;;;;;;;;;;;;;;;;;;7370152;19;2020;-62
2023/09/20 10:24:39;;;;;;;;;;;;;;;;;;7369951;19;1810;-61
2023/09/20 10:27:10;;;;;;;;;;;;;;;;;;7368588;19;866;-62
2023/09/20 10:29:39;;;;;;;;;;;;;;;;;;7364423;19;1336;-61
2023/09/20 10:32:09;;;;;;;;;;;;;;;;;;7367337;19;899;-62
2023/09/20 10:34:37;;;;;;;;;;;;;;;;;;7365775;19;933;-64
2023/09/20 10:37:06;;;;;;;;;;;;;;;;;;7367944;19;1998;-61
2023/09/20 10:39:34;;;;;;;;;;;;;;;;;;7369040;19;1646;-66
2023/09/20 10:42:04;;;;;;;;;;;;;;;;;;7371239;19;1857;-63
2023/09/20 10:44:33;;;;;;;;;;;;;;;;;;7366626;19;1990;-66
2023/09/20 10:47:02;;;;;;;;;;;;;;;;;;7370715;19;1711;-63
2023/09/20 10:49:30;;;;;;;;;;;;;;;;;;7366752;19;1789;-62
2023/09/20 10:51:58;;;;;;;;;;;;;;;;;;7366530;19;1806;-63
2023/09/20 10:54:26;;;;;;;;;;;;;;;;;;7369515;19;1803;-66
2023/09/20 10:56:52;;;;;;;;;;;;;;;;;;7369080;19;1901;-62
2023/09/20 10:59:21;;;;;;;;;;;;;;;;;;7367576;19;1720;-64
2023/09/20 11:01:49;;;;;;;;;;;;;;;;;;7370879;19;1561;-64
2023/09/20 11:04:17;;;;;;;;;;;;;;;;;;7368283;19;1939;-63
2023/09/20 11:06:45;;;;;;;;;;;;;;;;;;7367536;19;1155;-64
2023/09/20 11:09:14;;;;;;;;;;;;;;;;;;7367921;19;1826;-63
2023/09/20 11:11:42;;;;;;;;;;;;;;;;;;7370222;19;1350;-61
2023/09/20 11:14:10;;;;;;;;;;;;;;;;;;7370018;19;1697;-60
2023/09/20 11:16:41;;;;;;;;;;;;;;;;;;7368731;19;2065;-62
2023/09/20 11:19:09;;;;;;;;;;;;;;;;;;7367459;19;1879;-65
2023/09/20 11:21:37;;;;;;;;;;;;;;;;;;7369378;19;1209;-62
2023/09/20 11:24:06;;;;;;;;;;;;;;;;;;7364966;19;1857;-60
2023/09/20 11:26:34;;;;;;;;;;;;;;;;;;7368145;19;1129;-63
2023/09/20 11:29:02;;;;;;;;;;;;;;;;;;7363227;19;1344;-63
2023/09/20 11:31:32;;;;;;;;;;;;;;;;;;7366572;19;825;-61
2023/09/20 11:34:02;;;;;;;;;;;;;;;;;;7366844;19;912;-65
2023/09/20 11:36:30;;;;;;;;;;;;;;;;;;7362614;19;810;-62
2023/09/20 11:38:58;;;;;;;;;;;;;;;;;;7363732;19;1262;-65
2023/09/20 11:41:26;;;;;;;;;;;;;;;;;;7365705;19;801;-64
2023/09/20 11:43:54;;;;;;;;;;;;;;;;;;7363080;19;1859;-64
2023/09/20 11:46:26;;;;;;;;;;;;;;;;;;7365006;19;2002;-63
2023/09/20 11:48:54;;;;;;;;;;;;;;;;;;7365394;19;1624;-63
2023/09/20 11:51:23;;;;;;;;;;;;;;;;;;7366797;19;1666;-62
2023/09/20 11:53:51;;;;;;;;;;;;;;;;;;7367927;19;1832;-64
2023/09/20 11:56:19;;;;;;;;;;;;;;;;;;7365784;19;1779;-64
2023/09/20 11:58:47;;;;;;;;;;;;;;;;;;7366591;19;1710;-66
2023/09/20 12:01:15;;;;;;;;;;;;;;;;;;7364675;19;894;-63
2023/09/20 12:03:44;;;;;;;;;;;;;;;;;;7363202;19;1945;-65
2023/09/20 12:06:12;;;;;;;;;;;;;;;;;;7365139;19;1822;-63
2023/09/20 12:08:40;;;;;;;;;;;;;;;;;;7366153;19;1823;-60
2023/09/20 12:11:09;;;;;;;;;;;;;;;;;;7368624;19;1770;-64
2023/09/20 12:13:37;;;;;;;;;;;;;;;;;;7366647;19;1943;-64
2023/09/20 12:16:06;;;;;;;;;;;;;;;;;;7368215;19;1847;-64
2023/09/20 12:18:34;;;;;;;;;;;;;;;;;;7362107;19;1270;-62
2023/09/20 12:21:02;;;;;;;;;;;;;;;;;;7364671;19;915;-64
2023/09/20 12:23:30;;;;;;;;;;;;;;;;;;7362839;19;2062;-63
2023/09/20 12:25:58;;;;;;;;;;;;;;;;;;7367093;19;1817;-61
2023/09/20 12:28:27;;;;;;;;;;;;;;;;;;7362050;19;1764;-67
2023/09/20 12:30:58;;;;;;;;;;;;;;;;;;7367588;19;1699;-63
2023/09/20 12:33:26;;;;;;;;;;;;;;;;;;7367635;19;1750;-63
2023/09/20 12:35:54;;;;;;;;;;;;;;;;;;7366722;19;1462;-63
2023/09/20 12:38:22;;;;;;;;;;;;;;;;;;7363157;19;1718;-66
2023/09/20 12:40:52;;;;;;;;;;;;;;;;;;7364607;19;1941;-64
2023/09/20 12:43:20;;;;;;;;;;;;;;;;;;7366365;19;1881;-64
2023/09/20 12:45:48;;;;;;;;;;;;;;;;;;7363940;19;826;-64
2023/09/20 12:48:17;;;;;;;;;;;;;;;;;;7367029;19;1303;-63
2023/09/20 12:50:46;;;;;;;;;;;;;;;;;;7371788;19;1688;-61
2023/09/20 12:53:14;;;;;;;;;;;;;;;;;;7373898;19;1405;-61
2023/09/20 12:55:42;;;;;;;;;;;;;;;;;;7372908;19;1652;-61
2023/09/20 12:58:13;;;;;;;;;;;;;;;;;;7370640;19;1253;-62
2023/09/20 13:00:41;;;;;;;;;;;;;;;;;;7371345;19;700;-64
2023/09/20 13:03:09;;;;;;;;;;;;;;;;;;7369870;19;1855;-64
2023/09/20 13:05:37;;;;;;;;;;;;;;;;;;7373446;19;2117;-64
2023/09/20 13:08:06;;;;;;;;;;;;;;;;;;7370578;19;1970;-62
2023/09/20 13:10:34;;;;;;;;;;;;;;;;;;7374383;19;1760;-68
2023/09/20 13:13:03;;;;;;;;;;;;;;;;;;7373749;19;1458;-65
2023/09/20 13:15:31;;;;;;;;;;;;;;;;;;7368784;19;803;-65
2023/09/20 13:18:01;;;;;;;;;;;;;;;;;;7367740;19;1385;-64
2023/09/20 13:20:31;;;;;;;;;;;;;;;;;;7369905;19;917;-65
2023/09/20 13:22:59;;;;;;;;;;;;;;;;;;7372046;19;1960;-66
2023/09/20 13:25:31;;;;;;;;;;;;;;;;;;7371118;19;1433;-64
2023/09/20 13:27:59;;;;;;;;;;;;;;;;;;7369195;19;1278;-64
2023/09/20 13:30:28;;;;;;;;;;;;;;;;;;7369167;19;868;-65
2023/09/20 13:32:56;;;;;;;;;;;;;;;;;;7369715;19;853;-62
2023/09/20 13:35:24;;;;;;;;;;;;;;;;;;7369912;19;762;-65
2023/09/20 13:37:53;;;;;;;;;;;;;;;;;;7369043;19;1339;-62
2023/09/20 13:40:24;;;;;;;;;;;;;;;;;;7369290;19;815;-62
2023/09/20 13:42:53;;;;;;;;;;;;;;;;;;7368708;19;1855;-64
2023/09/20 13:45:22;;;;;;;;;;;;;;;;;;7368972;19;897;-63
2023/09/20 13:47:50;;;;;;;;;;;;;;;;;;7367566;19;1788;-62
2023/09/20 13:50:18;;;;;;;;;;;;;;;;;;7366946;19;2000;-67
2023/09/20 13:52:46;;;;;;;;;;;;;;;;;;7371830;19;1655;-64
2023/09/20 13:55:14;;;;;;;;;;;;;;;;;;7371771;19;1643;-62
2023/09/20 13:57:43;;;;;;;;;;;;;;;;;;7367587;19;1300;-66
2023/09/20 14:00:13;;;;;;;;;;;;;;;;;;7367403;19;1808;-63
2023/09/20 14:02:42;;;;;;;;;;;;;;;;;;7371157;19;1561;-64
2023/09/20 14:05:14;;;;;;;;;;;;;;;;;;7371566;19;1977;-63
2023/09/20 14:07:42;;;;;;;;;;;;;;;;;;7371662;19;1757;-63
2023/09/20 14:10:10;;;;;;;;;;;;;;;;;;7370893;19;1484;-62
2023/09/20 14:12:38;;;;;;;;;;;;;;;;;;7368865;19;793;-63
2023/09/20 14:15:07;;;;;;;;;;;;;;;;;;7367163;19;804;-64
2023/09/20 14:17:35;;;;;;;;;;;;;;;;;;7371467;19;1697;-62
2023/09/20 14:20:08;;;;;;;;;;;;;;;;;;7368757;19;801;-61
2023/09/20 14:22:36;;;;;;;;;;;;;;;;;;7371752;19;1701;-60
2023/09/20 14:25:05;;;;;;;;;;;;;;;;;;7368147;19;1850;-62
2023/09/20 14:27:33;;;;;;;;;;;;;;;;;;7367889;19;800;-63
2023/09/20 14:30:04;;;;;;;;;;;;;;;;;;7368003;19;888;-62
2023/09/20 14:32:32;;;;;;;;;;;;;;;;;;7368399;19;781;-66
2023/09/20 14:35:00;;;;;;;;;;;;;;;;;;7369844;19;2091;-63
2023/09/20 14:37:29;;;;;;;;;;;;;;;;;;7367424;19;1650;-64
2023/09/20 14:39:59;;;;;;;;;;;;;;;;;;7368180;19;1934;-64
2023/09/20 14:42:27;;;;;;;;;;;;;;;;;;7369523;19;1743;-62
2023/09/20 14:44:55;;;;;;;;;;;;;;;;;;7367943;19;1849;-63
2023/09/20 14:47:26;;;;;;;;;;;;;;;;;;7367208;19;858;-64
2023/09/20 14:49:54;;;;;;;;;;;;;;;;;;7364039;19;1288;-64
2023/09/20 14:52:22;;;;;;;;;;;;;;;;;;7371102;19;1884;-65
2023/09/20 14:54:52;;;;;;;;;;;;;;;;;;7369728;19;1596;-65
2023/09/20 14:57:21;;;;;;;;;;;;;;;;;;7371100;19;1748;-65
2023/09/20 14:59:49;;;;;;;;;;;;;;;;;;7365250;19;1665;-64
2023/09/20 15:02:17;;;;;;;;;;;;;;;;;;7367898;19;1940;-67
2023/09/20 15:04:45;;;;;;;;;;;;;;;;;;7365948;19;1859;-64
2023/09/20 15:07:14;;;;;;;;;;;;;;;;;;7369258;19;2085;-64
2023/09/20 15:09:42;;;;;;;;;;;;;;;;;;7366646;19;1907;-64
2023/09/20 15:12:10;;;;;;;;;;;;;;;;;;7368480;19;1999;-65
2023/09/20 15:14:40;;;;;;;;;;;;;;;;;;7369045;19;1896;-64
2023/09/20 15:17:08;;;;;;;;;;;;;;;;;;7371321;19;1587;-65
2023/09/20 15:19:36;;;;;;;;;;;;;;;;;;7364833;19;1969;-67
2023/09/20 15:22:04;;;;;;;;;;;;;;;;;;7366917;19;777;-64
2023/09/20 15:24:32;;;;;;;;;;;;;;;;;;7366018;19;1849;-64
2023/09/20 15:27:00;;;;;;;;;;;;;;;;;;7370568;19;1905;-66
2023/09/20 15:29:28;;;;;;;;;;;;;;;;;;7367707;19;1940;-66
2023/09/20 15:31:57;;;;;;;;;;;;;;;;;;7369069;19;1467;-65
2023/09/20 15:34:25;;;;;;;;;;;;;;;;;;7369696;19;1720;-67
2023/09/20 15:36:54;;;;;;;;;;;;;;;;;;7369534;19;1653;-66
2023/09/20 15:39:22;;;;;;;;;;;;;;;;;;7367405;19;1734;-65
2023/09/20 15:41:50;;;;;;;;;;;;;;;;;;7367830;19;1815;-65
2023/09/20 15:44:19;;;;;;;;;;;;;;;;;;7363885;19;1902;-65
2023/09/20 15:46:48;;;;;;;;;;;;;;;;;;7366114;19;2129;-65
2023/09/20 15:49:17;;;;;;;;;;;;;;;;;;7363340;19;1834;-63
2023/09/20 15:51:46;;;;;;;;;;;;;;;;;;7366807;19;1737;-63
2023/09/20 15:54:14;;;;;;;;;;;;;;;;;;7368052;19;2042;-64
2023/09/20 15:56:42;;;;;;;;;;;;;;;;;;7369397;19;1125;-62
2023/09/20 15:59:10;;;;;;;;;;;;;;;;;;7366638;19;1706;-64
2023/09/20 16:01:38;;;;;;;;;;;;;;;;;;7368609;19;1741;-64
2023/09/20 16:04:07;;;;;;;;;;;;;;;;;;7369562;19;1810;-64
2023/09/20 16:06:35;;;;;;;;;;;;;;;;;;7365438;19;2019;-67
2023/09/20 16:09:04;;;;;;;;;;;;;;;;;;7364839;19;1599;-64
2023/09/20 16:11:32;;;;;;;;;;;;;;;;;;7368110;19;1661;-63
2023/09/20 16:14:01;;;;;;;;;;;;;;;;;;7368999;19;1710;-64
2023/09/20 16:16:29;;;;;;;;;;;;;;;;;;7368973;19;1834;-65
2023/09/20 16:18:57;;;;;;;;;;;;;;;;;;7367601;19;1479;-63
2023/09/20 16:21:25;;;;;;;;;;;;;;;;;;7370805;19;1509;-65
2023/09/20 16:23:53;;;;;;;;;;;;;;;;;;7372053;19;1868;-65
2023/09/20 16:26:22;;;;;;;;;;;;;;;;;;7375340;19;1750;-66
2023/09/20 16:28:50;;;;;;;;;;;;;;;;;;7373959;19;1519;-65
2023/09/20 16:31:18;;;;;;;;;;;;;;;;;;7372875;19;1719;-65
2023/09/20 16:33:48;;;;;;;;;;;;;;;;;;7372932;19;1761;-64
2023/09/20 16:36:16;;;;;;;;;;;;;;;;;;7375757;19;1672;-64
2023/09/20 16:38:46;;;;;;;;;;;;;;;;;;7370826;19;1556;-66
2023/09/20 16:41:14;;;;;;;;;;;;;;;;;;7374655;19;1781;-63
2023/09/20 16:43:43;;;;;;;;;;;;;;;;;;7372715;19;2022;-64
2023/09/20 16:46:11;;;;;;;;;;;;;;;;;;7371836;19;1842;-59
2023/09/20 16:48:39;;;;;;;;;;;;;;;;;;7371829;19;2069;-63
2023/09/20 16:51:07;;;;;;;;;;;;;;;;;;7374850;19;1709;-65
2023/09/20 16:53:36;;;;;;;;;;;;;;;;;;7371702;19;1680;-64
2023/09/20 16:56:04;;;;;;;;;;;;;;;;;;7372929;19;1718;-63
2023/09/20 16:58:33;;;;;;;;;;;;;;;;;;7371124;19;1596;-64
2023/09/20 17:01:01;;;;;;;;;;;;;;;;;;7372038;19;1889;-65
2023/09/20 17:03:29;;;;;;;;;;;;;;;;;;7374920;19;1791;-65
2023/09/20 17:05:57;;;;;;;;;;;;;;;;;;7370303;19;1849;-64
2023/09/20 17:08:26;;;;;;;;;;;;;;;;;;7372161;19;1899;-64
2023/09/20 17:10:54;;;;;;;;;;;;;;;;;;7373885;19;1616;-65
2023/09/20 17:13:22;;;;;;;;;;;;;;;;;;7374793;19;2039;-64
2023/09/20 17:15:52;;;;;;;;;;;;;;;;;;7373694;19;1716;-64
2023/09/20 17:18:21;;;;;;;;;;;;;;;;;;7372550;19;1707;-64
2023/09/20 17:20:49;;;;;;;;;;;;;;;;;;7370796;19;824;-64
2023/09/20 17:23:18;;;;;;;;;;;;;;;;;;7372023;19;830;-63
2023/09/20 17:25:46;;;;;;;;;;;;;;;;;;7370612;19;1858;-64
2023/09/20 17:28:14;;;;;;;;;;;;;;;;;;7373482;19;1738;-65
2023/09/20 17:30:44;;;;;;;;;;;;;;;;;;7374706;19;1367;-63
2023/09/20 17:33:12;;;;;;;;;;;;;;;;;;7371094;19;861;-63
2023/09/20 17:35:40;;;;;;;;;;;;;;;;;;7370494;19;1962;-64
2023/09/20 17:38:09;;;;;;;;;;;;;;;;;;7373349;19;1429;-64
2023/09/20 17:40:37;;;;;;;;;;;;;;;;;;7369585;19;1807;-65
2023/09/20 17:43:05;;;;;;;;;;;;;;;;;;7372516;19;1560;-64
2023/09/20 17:45:33;;;;;;;;;;;;;;;;;;7366346;19;1850;-64
2023/09/20 17:48:01;;;;;;;;;;;;;;;;;;7369370;19;1593;-64
2023/09/20 17:50:30;;;;;;;;;;;;;;;;;;7373352;19;1781;-64
2023/09/20 17:52:58;;;;;;;;;;;;;;;;;;7369054;19;1569;-65
2023/09/20 17:55:27;;;;;;;;;;;;;;;;;;7373235;19;1463;-65
2023/09/20 17:57:56;;;;;;;;;;;;;;;;;;7369009;19;1298;-65